createdAt,value
2023-03-08T00:02:05.618Z,70.73
2023-03-08T00:04:32.571Z,70.25
2023-03-08T00:07:02.724Z,68.98
2023-03-08T00:09:29.574Z,67.76
2023-03-08T00:11:56.403Z,66.61
2023-03-08T00:14:23.216Z,65.66
2023-03-08T00:16:50.089Z,66.11
2023-03-08T00:19:17.205Z,65.79
2023-03-08T00:21:44.000Z,66.35
2023-03-08T00:24:12.208Z,65.70
2023-03-08T00:26:39.039Z,65.53
2023-03-08T00:29:06.612Z,65.83
2023-03-08T00:31:33.524Z,65.56
2023-03-08T00:34:00.386Z,64.98
2023-03-08T00:36:27.335Z,65.20
2023-03-08T00:38:54.142Z,66.01
2023-03-08T00:41:21.149Z,65.98
2023-03-08T00:43:48.224Z,66.22
2023-03-08T00:46:15.708Z,66.59
2023-03-08T00:48:42.845Z,66.64
2023-03-08T00:51:13.845Z,66.27
2023-03-08T00:53:41.116Z,66.02
2023-03-08T00:56:08.120Z,66.23
2023-03-08T00:58:37.621Z,66.48
2023-03-08T01:01:04.703Z,66.26
2023-03-08T01:03:32.017Z,66.40
2023-03-08T01:05:59.348Z,66.14
2023-03-08T01:08:27.237Z,66.46
2023-03-08T01:10:59.343Z,66.23
2023-03-08T01:13:29.715Z,66.18
2023-03-08T01:15:56.679Z,66.51
2023-03-08T01:18:23.606Z,66.57
2023-03-08T01:21:02.818Z,66.67
2023-03-08T01:23:30.973Z,66.46
2023-03-08T01:26:02.371Z,66.28
2023-03-08T01:28:29.508Z,66.20
2023-03-08T01:31:05.089Z,66.14
2023-03-08T01:33:33.555Z,66.04
2023-03-08T01:36:02.594Z,65.90
2023-03-08T01:38:29.445Z,66.18
2023-03-08T01:40:58.247Z,66.33
2023-03-08T01:43:28.076Z,67.62
2023-03-08T01:46:17.801Z,68.16
2023-03-08T01:48:59.286Z,68.82
2023-03-08T01:51:39.749Z,68.37
2023-03-08T01:54:29.975Z,68.96
2023-03-08T01:57:07.271Z,69.01
2023-03-08T01:59:35.515Z,68.95
2023-03-08T02:02:03.098Z,68.68
2023-03-08T02:04:31.829Z,68.65
2023-03-08T02:06:59.337Z,68.63
2023-03-08T02:09:27.684Z,68.32
2023-03-08T02:11:59.325Z,68.23
2023-03-08T02:14:26.597Z,68.71
2023-03-08T02:16:54.433Z,69.27
2023-03-08T02:19:27.749Z,69.38
2023-03-08T02:21:54.580Z,69.22
2023-03-08T02:24:24.397Z,69.14
2023-03-08T02:27:02.250Z,68.78
2023-03-08T02:29:29.045Z,68.83
2023-03-08T02:31:55.757Z,68.45
2023-03-08T02:34:22.558Z,68.60
2023-03-08T02:36:49.362Z,68.24
2023-03-08T02:39:17.395Z,68.08
2023-03-08T02:41:44.135Z,68.04
2023-03-08T02:44:13.505Z,68.12
2023-03-08T02:46:40.320Z,68.06
2023-03-08T02:49:07.187Z,68.28
2023-03-08T02:51:34.106Z,67.91
2023-03-08T02:54:01.005Z,68.12
2023-03-08T02:56:28.535Z,67.96
2023-03-08T02:58:55.387Z,68.20
2023-03-08T03:01:23.565Z,68.10
2023-03-08T03:03:50.413Z,68.17
2023-03-08T03:06:20.131Z,68.28
2023-03-08T03:08:51.268Z,68.03
2023-03-08T03:11:21.238Z,68.04
2023-03-08T03:13:56.933Z,68.47
2023-03-08T03:16:26.931Z,68.70
2023-03-08T03:18:55.785Z,68.55
2023-03-08T03:21:23.652Z,68.72
2023-03-08T03:23:50.558Z,68.67
2023-03-08T03:26:22.539Z,68.70
2023-03-08T03:28:55.508Z,68.77
2023-03-08T03:31:24.402Z,68.32
2023-03-08T03:33:51.849Z,68.28
2023-03-08T03:36:21.844Z,68.43
2023-03-08T03:38:49.124Z,68.64
2023-03-08T03:41:18.986Z,68.11
2023-03-08T03:43:46.671Z,67.84
2023-03-08T03:46:16.768Z,67.71
2023-03-08T03:48:46.181Z,67.65
2023-03-08T03:51:17.115Z,67.36
2023-03-08T03:53:47.920Z,67.96
2023-03-08T03:56:21.436Z,67.86
2023-03-08T03:58:49.223Z,67.92
2023-03-08T04:01:28.428Z,67.88
2023-03-08T04:04:01.668Z,67.79
2023-03-08T04:06:34.266Z,67.88
2023-03-08T04:09:04.119Z,67.75
2023-03-08T04:11:38.855Z,67.63
2023-03-08T04:14:09.483Z,67.65
2023-03-08T04:16:39.389Z,67.55
2023-03-08T04:19:13.529Z,67.25
2023-03-08T04:21:47.538Z,66.95
2023-03-08T04:24:16.914Z,66.88
2023-03-08T04:26:46.533Z,66.88
2023-03-08T04:29:17.388Z,66.79
2023-03-08T04:31:44.411Z,66.62
2023-03-08T04:34:14.474Z,66.43
2023-03-08T04:36:41.978Z,66.36
2023-03-08T04:39:09.565Z,66.22
2023-03-08T04:41:36.484Z,66.61
2023-03-08T04:44:25.919Z,66.56
2023-03-08T04:46:53.726Z,66.96
2023-03-08T04:49:27.820Z,67.03
2023-03-08T04:51:59.592Z,66.93
2023-03-08T04:54:28.031Z,66.52
2023-03-08T04:57:03.010Z,66.61
2023-03-08T04:59:31.835Z,65.92
2023-03-08T05:02:01.855Z,65.31
2023-03-08T05:04:30.603Z,64.88
2023-03-08T05:06:57.398Z,64.96
2023-03-08T05:09:27.366Z,65.05
2023-03-08T05:11:54.197Z,64.71
2023-03-08T05:14:22.409Z,64.64
2023-03-08T05:16:50.489Z,64.65
2023-03-08T05:19:17.478Z,63.88
2023-03-08T05:21:48.989Z,63.73
2023-03-08T05:24:15.821Z,63.65
2023-03-08T05:26:42.807Z,63.12
2023-03-08T05:29:11.525Z,62.33
2023-03-08T05:31:40.115Z,61.98
2023-03-08T05:34:11.368Z,61.39
2023-03-08T05:36:42.701Z,60.72
2023-03-08T05:39:10.918Z,60.94
2023-03-08T05:41:44.526Z,60.55
2023-03-08T05:44:14.131Z,60.74
2023-03-08T05:46:41.449Z,60.23
2023-03-08T05:49:10.724Z,60.58
2023-03-08T05:51:37.754Z,60.29
2023-03-08T05:54:05.681Z,60.16
2023-03-08T05:56:34.493Z,59.70
2023-03-08T05:59:07.209Z,59.67
2023-03-08T06:01:34.028Z,59.48
2023-03-08T06:04:21.574Z,59.43
2023-03-08T06:06:50.202Z,59.33
2023-03-08T06:09:18.845Z,59.37
2023-03-08T06:11:46.318Z,59.46
2023-03-08T06:14:13.444Z,59.56
2023-03-08T06:16:41.413Z,59.45
2023-03-08T06:19:08.301Z,59.50
2023-03-08T06:21:37.066Z,59.66
2023-03-08T06:24:05.720Z,59.48
2023-03-08T06:26:33.291Z,59.59
2023-03-08T06:29:00.653Z,59.40
2023-03-08T06:31:30.166Z,59.28
2023-03-08T06:33:57.814Z,59.04
2023-03-08T06:36:27.402Z,59.21
2023-03-08T06:38:54.332Z,59.07
2023-03-08T06:41:21.893Z,59.11
2023-03-08T06:43:53.533Z,59.10
2023-03-08T06:46:22.102Z,59.53
2023-03-08T06:48:49.345Z,59.17
2023-03-08T06:51:18.239Z,59.32
2023-03-08T06:53:46.566Z,59.33
2023-03-08T06:56:18.036Z,59.10
2023-03-08T06:58:45.273Z,59.15
2023-03-08T07:01:13.880Z,59.11
2023-03-08T07:03:40.865Z,58.95
2023-03-08T07:06:09.879Z,57.60
2023-03-08T07:08:37.823Z,57.63
2023-03-08T07:11:06.686Z,57.32
2023-03-08T07:13:33.699Z,57.00
2023-03-08T07:16:06.909Z,56.54
2023-03-08T07:18:33.759Z,56.43
2023-03-08T07:21:00.537Z,55.93
2023-03-08T07:23:27.518Z,55.42
2023-03-08T07:25:54.380Z,55.27
2023-03-08T07:28:22.588Z,54.89
2023-03-08T07:30:53.504Z,54.93
2023-03-08T07:33:21.692Z,54.60
2023-03-08T07:35:48.882Z,54.83
2023-03-08T07:38:16.656Z,54.50
2023-03-08T07:40:43.882Z,54.54
2023-03-08T07:43:10.901Z,54.25
2023-03-08T07:45:59.812Z,54.23
2023-03-08T07:48:26.596Z,53.92
2023-03-08T07:50:53.413Z,53.92
2023-03-08T07:53:20.189Z,53.70
2023-03-08T07:55:47.024Z,53.70
2023-03-08T07:58:14.195Z,53.31
2023-03-08T08:00:41.037Z,53.71
2023-03-08T08:03:07.915Z,53.23
2023-03-08T08:05:36.298Z,53.21
2023-03-08T08:08:03.513Z,53.31
2023-03-08T08:10:30.373Z,53.38
2023-03-08T08:12:57.237Z,53.24
2023-03-08T08:15:25.794Z,53.13
2023-03-08T08:17:52.883Z,53.06
2023-03-08T08:20:19.681Z,53.08
2023-03-08T08:22:46.645Z,52.96
2023-03-08T08:25:13.480Z,52.65
2023-03-08T08:27:40.294Z,52.70
2023-03-08T08:30:07.815Z,52.38
2023-03-08T08:32:36.054Z,52.46
2023-03-08T08:35:02.989Z,52.53
2023-03-08T08:37:30.769Z,60.42
2023-03-08T08:39:57.893Z,57.05
2023-03-08T08:42:25.026Z,56.18
2023-03-08T08:44:54.694Z,55.34
2023-03-08T08:47:21.452Z,54.85
2023-03-08T08:49:48.203Z,54.98
2023-03-08T08:52:15.058Z,52.73
2023-03-08T08:54:41.903Z,55.06
2023-03-08T08:57:08.751Z,53.08
2023-03-08T08:59:35.524Z,51.99
2023-03-08T09:02:02.761Z,51.81
2023-03-08T09:04:29.711Z,51.66
2023-03-08T09:06:56.741Z,52.36
2023-03-08T09:09:23.658Z,54.99
2023-03-08T09:11:55.249Z,55.45
2023-03-08T09:14:22.806Z,51.94
2023-03-08T09:16:49.659Z,51.95
2023-03-08T09:19:16.559Z,51.67
2023-03-08T09:21:43.371Z,53.69
2023-03-08T09:24:11.535Z,50.94
2023-03-08T09:26:38.344Z,51.98
2023-03-08T09:29:05.693Z,50.79
2023-03-08T09:31:35.382Z,50.94
2023-03-08T09:34:04.753Z,50.76
2023-03-08T09:36:31.712Z,50.44
2023-03-08T09:38:58.416Z,51.23
2023-03-08T09:41:43.757Z,50.33
2023-03-08T09:44:43.819Z,49.95
2023-03-08T09:47:33.549Z,50.06
2023-03-08T09:50:21.155Z,49.22
2023-03-08T09:52:54.581Z,49.59
2023-03-08T09:55:33.369Z,49.35
2023-03-08T09:58:14.506Z,48.62
2023-03-08T10:00:41.804Z,48.04
2023-03-08T10:03:36.531Z,48.04
2023-03-08T10:06:17.273Z,47.44
2023-03-08T10:08:59.918Z,47.12
2023-03-08T10:11:54.175Z,48.00
2023-03-08T10:14:26.570Z,48.13
2023-03-08T10:17:01.543Z,47.46
2023-03-08T10:19:35.805Z,46.64
2023-03-08T10:22:14.017Z,46.46
2023-03-08T10:24:48.902Z,46.00
2023-03-08T10:27:32.286Z,46.17
2023-03-08T10:30:01.073Z,45.87
2023-03-08T10:32:28.939Z,45.80
2023-03-08T10:35:03.697Z,45.80
2023-03-08T10:37:32.598Z,45.83
2023-03-08T10:40:05.515Z,45.74
2023-03-08T10:42:33.599Z,45.47
2023-03-08T10:45:11.301Z,45.36
2023-03-08T10:47:39.055Z,45.45
2023-03-08T10:50:08.458Z,45.24
2023-03-08T10:52:35.419Z,45.26
2023-03-08T10:55:10.355Z,45.14
2023-03-08T10:57:37.952Z,44.67
2023-03-08T11:00:26.725Z,44.70
2023-03-08T11:03:14.189Z,44.63
2023-03-08T11:05:53.121Z,44.20
2023-03-08T11:08:28.977Z,44.23
2023-03-08T11:11:04.448Z,44.36
2023-03-08T11:13:35.627Z,44.13
2023-03-08T11:16:14.840Z,44.14
2023-03-08T11:18:51.740Z,43.87
2023-03-08T11:21:46.834Z,43.59
2023-03-08T11:24:47.072Z,43.23
2023-03-08T11:27:56.746Z,43.42
2023-03-08T11:30:46.495Z,42.81
2023-03-08T11:33:49.681Z,42.23
2023-03-08T11:36:48.206Z,42.59
2023-03-08T11:39:30.919Z,42.42
2023-03-08T11:42:04.405Z,42.21
2023-03-08T11:44:46.278Z,42.12
2023-03-08T11:47:33.229Z,41.63
2023-03-08T11:50:21.570Z,41.90
2023-03-08T11:52:48.271Z,41.96
2023-03-08T11:55:36.797Z,41.58
2023-03-08T11:58:20.422Z,41.82
2023-03-08T12:00:50.511Z,41.62
2023-03-08T12:03:22.098Z,41.50
2023-03-08T12:06:02.881Z,41.34
2023-03-08T12:08:34.166Z,41.21
2023-03-08T12:11:11.884Z,41.48
2023-03-08T12:13:44.353Z,41.44
2023-03-08T12:16:14.849Z,41.07
2023-03-08T12:19:09.347Z,41.34
2023-03-08T12:21:49.102Z,41.43
2023-03-08T12:24:18.704Z,41.54
2023-03-08T12:26:55.370Z,41.09
2023-03-08T12:29:26.235Z,41.04
2023-03-08T12:31:53.885Z,40.97
2023-03-08T12:34:29.169Z,40.91
2023-03-08T12:36:56.357Z,41.08
2023-03-08T12:39:32.348Z,40.92
2023-03-08T12:42:13.360Z,40.68
2023-03-08T12:44:40.932Z,41.16
2023-03-08T12:47:13.737Z,41.33
2023-03-08T12:49:51.447Z,40.80
2023-03-08T12:52:18.257Z,40.98
2023-03-08T12:54:55.845Z,40.90
2023-03-08T12:57:25.729Z,40.71
2023-03-08T13:00:06.305Z,40.09
2023-03-08T13:02:34.618Z,39.02
2023-03-08T13:05:24.096Z,38.71
2023-03-08T13:08:13.619Z,38.49
2023-03-08T13:10:52.530Z,38.95
2023-03-08T13:13:51.690Z,38.93
2023-03-08T13:16:20.262Z,38.85
2023-03-08T13:18:50.184Z,39.44
2023-03-08T13:21:28.921Z,39.13
2023-03-08T13:24:09.483Z,39.29
2023-03-08T13:27:05.232Z,39.00
2023-03-08T13:29:33.967Z,39.17
2023-03-08T13:32:21.404Z,39.35
2023-03-08T13:34:59.758Z,39.45
2023-03-08T13:37:28.723Z,39.55
2023-03-08T13:39:58.073Z,39.80
2023-03-08T13:42:27.613Z,40.14
2023-03-08T13:45:18.153Z,40.27
2023-03-08T13:47:47.317Z,40.51
2023-03-08T13:50:35.187Z,40.33
2023-03-08T13:53:03.974Z,40.21
2023-03-08T13:55:38.767Z,40.15
2023-03-08T13:58:06.065Z,39.71
2023-03-08T14:39:31.276Z,40.65
2023-03-08T14:41:58.219Z,40.98
2023-03-08T14:44:29.629Z,40.95
2023-03-08T14:46:59.486Z,41.55
2023-03-08T14:49:29.423Z,41.31
2023-03-08T14:51:56.383Z,41.90
2023-03-08T14:54:28.579Z,41.77
2023-03-08T14:56:55.378Z,41.26
2023-03-08T14:59:27.919Z,41.24
2023-03-08T15:01:55.398Z,41.66
2023-03-08T15:04:25.706Z,41.55
2023-03-08T15:06:54.629Z,42.66
2023-03-08T15:09:22.708Z,41.72
2023-03-08T15:11:52.427Z,41.38
2023-03-08T15:14:19.298Z,41.49
2023-03-08T15:16:46.196Z,40.48
2023-03-08T15:19:13.977Z,40.05
2023-03-08T15:21:41.344Z,39.90
2023-03-08T15:24:14.987Z,39.69
2023-03-08T15:26:41.817Z,39.33
2023-03-08T15:29:29.302Z,39.43
2023-03-08T15:31:57.306Z,39.30
2023-03-08T15:34:26.223Z,39.04
2023-03-08T15:36:55.067Z,39.32
2023-03-08T15:39:21.937Z,38.88
2023-03-08T15:41:48.846Z,39.12
2023-03-08T15:44:15.777Z,38.66
2023-03-08T15:46:42.932Z,38.71
2023-03-08T15:49:10.799Z,38.66
2023-03-08T15:51:38.409Z,38.63
2023-03-08T15:54:06.606Z,38.35
2023-03-08T15:56:33.896Z,38.66
2023-03-08T15:59:01.010Z,38.59
2023-03-08T16:01:28.200Z,38.42
2023-03-08T16:03:56.679Z,38.98
2023-03-08T16:06:23.993Z,38.86
2023-03-08T16:08:50.986Z,39.00
2023-03-08T16:11:21.202Z,39.56
2023-03-08T16:13:50.209Z,40.58
2023-03-08T16:16:17.652Z,40.91
2023-03-08T16:18:44.708Z,40.63
2023-03-08T16:21:11.919Z,40.46
2023-03-08T16:23:41.566Z,40.50
2023-03-08T16:26:16.701Z,40.11
2023-03-08T16:28:46.485Z,40.39
2023-03-08T16:31:14.650Z,40.10
2023-03-08T16:33:41.499Z,40.41
2023-03-08T16:36:08.502Z,40.54
2023-03-08T16:38:35.638Z,40.34
2023-03-08T16:41:12.675Z,40.62
2023-03-08T16:43:46.779Z,41.05
2023-03-08T16:46:16.783Z,40.88
2023-03-08T16:48:43.730Z,41.46
2023-03-08T16:51:14.426Z,40.98
2023-03-08T16:53:41.281Z,41.45
2023-03-08T16:56:08.044Z,41.45
2023-03-08T16:58:34.861Z,41.46
2023-03-08T17:01:01.839Z,41.74
2023-03-08T17:03:28.770Z,41.65
2023-03-08T17:05:55.512Z,42.24
2023-03-08T17:08:22.280Z,42.27
2023-03-08T17:10:49.118Z,42.70
2023-03-08T17:13:15.870Z,43.00
2023-03-08T17:15:44.908Z,43.44
2023-03-08T17:18:12.620Z,43.64
2023-03-08T17:20:41.304Z,43.60
2023-03-08T17:23:09.786Z,43.50
2023-03-08T17:25:40.982Z,43.76
2023-03-08T17:28:08.910Z,44.03
2023-03-08T17:30:38.070Z,44.15
2023-03-08T17:33:05.065Z,44.06
2023-03-08T17:35:31.956Z,44.06
2023-03-08T17:37:58.887Z,44.16
2023-03-08T17:40:25.682Z,44.15
2023-03-08T17:42:52.511Z,44.28
2023-03-08T17:45:19.795Z,44.17
2023-03-08T17:47:48.327Z,44.38
2023-03-08T17:50:15.130Z,44.53
2023-03-08T17:52:42.206Z,44.67
2023-03-08T17:55:09.545Z,44.81
2023-03-08T17:57:37.648Z,44.83
2023-03-08T18:00:06.223Z,44.84
2023-03-08T18:02:33.680Z,45.09
2023-03-08T18:05:00.565Z,45.27
2023-03-08T18:07:29.114Z,45.08
2023-03-08T18:09:56.001Z,45.28
2023-03-08T18:12:23.021Z,45.50
2023-03-08T18:14:52.651Z,45.54
2023-03-08T18:17:20.831Z,45.64
2023-03-08T18:19:48.077Z,45.99
2023-03-08T18:22:15.834Z,46.09
2023-03-08T18:24:42.854Z,46.28
2023-03-08T18:27:09.621Z,46.17
2023-03-08T18:29:37.006Z,46.85
2023-03-08T18:32:04.386Z,46.60
2023-03-08T18:34:31.193Z,46.57
2023-03-08T18:37:01.043Z,46.74
2023-03-08T18:39:27.777Z,46.85
2023-03-08T18:41:56.909Z,46.91
2023-03-08T18:44:26.788Z,47.31
2023-03-08T18:46:53.821Z,47.25
2023-03-08T18:49:20.706Z,47.19
2023-03-08T18:51:47.560Z,47.32
2023-03-08T18:54:20.794Z,47.42
2023-03-08T18:56:50.035Z,47.41
2023-03-08T18:59:16.979Z,47.45
2023-03-08T19:01:44.690Z,47.74
2023-03-08T19:04:11.761Z,47.83
2023-03-08T19:06:38.641Z,47.71
2023-03-08T19:09:16.635Z,48.03
2023-03-08T19:11:44.201Z,47.89
2023-03-08T19:14:15.008Z,48.42
2023-03-08T19:16:42.155Z,48.27
2023-03-08T19:19:12.373Z,48.56
2023-03-08T19:21:42.677Z,48.50
2023-03-08T19:24:12.545Z,48.25
2023-03-08T19:26:41.332Z,48.70
2023-03-08T19:29:10.037Z,48.62
2023-03-08T19:31:40.335Z,48.47
2023-03-08T19:34:07.894Z,48.90
2023-03-08T19:36:38.213Z,48.80
2023-03-08T19:39:10.249Z,48.61
2023-03-08T19:41:37.049Z,48.75
2023-03-08T19:44:07.195Z,48.31
2023-03-08T19:46:35.572Z,48.45
2023-03-08T19:49:04.541Z,48.18
2023-03-08T19:51:31.848Z,48.05
2023-03-08T19:53:58.993Z,48.06
2023-03-08T19:56:26.485Z,47.87
2023-03-08T19:58:56.115Z,47.14
2023-03-08T20:01:23.545Z,47.49
2023-03-08T20:03:50.471Z,48.03
2023-03-08T20:06:28.983Z,47.73
2023-03-08T20:08:56.954Z,47.83
2023-03-08T20:11:24.226Z,48.00
2023-03-08T20:13:51.347Z,48.16
2023-03-08T20:16:19.511Z,48.32
2023-03-08T20:18:49.171Z,48.06
2023-03-08T20:21:17.824Z,48.09
2023-03-08T20:23:45.746Z,48.11
2023-03-08T20:26:13.065Z,48.88
2023-03-08T20:28:39.995Z,49.04
2023-03-08T20:31:10.964Z,48.98
2023-03-08T20:33:38.415Z,49.23
2023-03-08T20:36:06.077Z,49.18
2023-03-08T20:38:32.909Z,48.95
2023-03-08T20:41:00.959Z,49.00
2023-03-08T20:43:28.617Z,49.21
2023-03-08T20:45:55.543Z,49.15
2023-03-08T20:48:23.249Z,49.40
2023-03-08T20:50:50.114Z,49.69
2023-03-08T20:53:16.867Z,49.86
2023-03-08T20:55:43.659Z,50.10
2023-03-08T20:58:10.451Z,50.48
2023-03-08T21:00:39.036Z,50.72
2023-03-08T21:03:07.329Z,50.98
2023-03-08T21:05:36.039Z,51.31
2023-03-08T21:08:04.036Z,51.37
2023-03-08T21:10:32.956Z,51.83
2023-03-08T21:13:00.206Z,52.13
2023-03-08T21:15:27.259Z,52.19
2023-03-08T21:17:54.171Z,52.77
2023-03-08T21:20:21.200Z,53.03
2023-03-08T21:22:47.970Z,53.61
2023-03-08T21:25:14.755Z,53.59
2023-03-08T21:27:41.576Z,53.81
2023-03-08T21:30:09.184Z,53.99
2023-03-08T21:32:36.081Z,54.29
2023-03-08T21:35:03.213Z,54.49
2023-03-08T21:37:30.020Z,54.46
2023-03-08T21:39:57.186Z,54.62
2023-03-08T21:42:24.654Z,54.87
2023-03-08T21:44:51.391Z,54.88
2023-03-08T21:47:18.165Z,54.83
2023-03-08T21:49:44.916Z,54.98
2023-03-08T21:52:11.709Z,55.29
2023-03-08T21:54:38.528Z,55.14
2023-03-08T21:57:05.399Z,55.27
2023-03-08T21:59:32.161Z,55.29
2023-03-08T22:01:59.168Z,55.42
2023-03-08T22:04:27.274Z,55.43
2023-03-08T22:06:55.638Z,55.62
2023-03-08T22:09:23.393Z,55.63
2023-03-08T22:11:51.607Z,55.67
2023-03-08T22:14:18.416Z,55.73
2023-03-08T22:16:45.202Z,55.96
2023-03-08T22:19:11.988Z,56.32
2023-03-08T22:21:38.805Z,56.57
2023-03-08T22:24:08.379Z,56.12
2023-03-08T22:26:35.538Z,56.45
2023-03-08T22:29:02.338Z,56.38
2023-03-08T22:31:30.466Z,56.19
2023-03-08T22:33:57.910Z,54.69
2023-03-08T22:36:25.087Z,55.10
2023-03-08T22:38:51.990Z,55.55
2023-03-08T22:41:24.675Z,54.91
2023-03-08T22:43:52.411Z,52.59
2023-03-08T22:46:27.761Z,54.23
2023-03-08T22:48:58.181Z,54.33
2023-03-08T22:51:27.719Z,54.52
2023-03-08T22:53:56.027Z,54.13
2023-03-08T22:56:25.994Z,54.16
2023-03-08T22:58:53.230Z,54.06
2023-03-08T23:01:22.324Z,53.99
2023-03-08T23:03:50.496Z,54.11
2023-03-08T23:06:18.656Z,52.77
2023-03-08T23:08:46.307Z,53.15
2023-03-08T23:11:13.795Z,52.57
2023-03-08T23:13:41.324Z,52.71
2023-03-08T23:16:08.957Z,52.69
2023-03-08T23:18:36.068Z,52.58
2023-03-08T23:21:04.975Z,52.45
2023-03-08T23:23:32.095Z,52.60
2023-03-08T23:25:59.108Z,52.73
2023-03-08T23:28:26.103Z,52.46
2023-03-08T23:30:52.853Z,52.70
2023-03-08T23:33:19.665Z,52.43
2023-03-08T23:35:49.907Z,52.24
2023-03-08T23:38:16.725Z,52.38
2023-03-08T23:40:43.628Z,52.28
2023-03-08T23:43:10.462Z,52.39
2023-03-08T23:45:39.379Z,52.32
2023-03-08T23:48:06.735Z,52.25
2023-03-08T23:50:33.710Z,52.22
2023-03-08T23:53:00.457Z,52.05
2023-03-08T23:55:27.457Z,52.04
2023-03-08T23:57:54.213Z,52.02
